METAR AND TAF INFORMATION
METAR FOR ETMN
ADDS - METARS form results

(2314 UTC 24 March 2019)
Data provider http://aviationweather.gov/metar/data/
 
METAR text: ETMN 242220Z 24010KT 9999 BKN041 BKN060 05/02 Q1017 BLU
Conditions at: ETMN (NORDHOLZ (GER-NA, DE) observed 2220 UTC 24 March 2019
Temperature: 5.0°C (41°F)
Dewpoint: 2.0°C (36°F) [RH = 81%]
Pressure (altimeter): 30.03 inches Hg (1017.0 mb)
Winds: from the WSW (240 degrees) at 12 MPH (10 knots; 5.1 m/s)
Visibility: 6 or more miles (10+ km)
Ceiling: 4100 feet AGL
Clouds: broken clouds at 4100 feet AGL
broken clouds at 6000 feet AGL
Weather: no significant weather observed at this time

 AIRPORT MAP

 RUNWAY INFORMATION
Runway 08 Runway length 8002 ft Runway width 148 ft
Runway elevation 69 ft Runway displaced threshold 0 ft Runway heading 78
Runway 26 Runway length 8002 ft Runway width 148 ft
Runway elevation 39 ft Runway displaced threshold 0 ft Runway heading 258

 AIRPORT FREQUENCIES
Type A/D Name RADAR Frequency 35.612 MHZ
Type A/D Name RADAR Frequency 123.3 MHZ
Type ACC Name BREMEN CON Frequency 124.075 MHZ
Type AFIS Name BREMEN INF Frequency 125.1 MHZ
Type OPS Name WING OPS Frequency 28.252 MHZ
Type TWR Name TWR Frequency 122.1 MHZ

 AIRPORT NEAR NAVIGATION AIDS
Type TACAN Name Nordholz Frequency 117100 KHZ
Type NDB Name Nordholz Frequency 372 KHZ